createdAt,value
2023-01-12T00:02:21.727Z,7.70
2023-01-12T00:04:53.207Z,7.70
2023-01-12T00:07:21.709Z,7.70
2023-01-12T00:09:50.153Z,7.60
2023-01-12T00:12:18.672Z,7.70
2023-01-12T00:14:47.110Z,7.60
2023-01-12T00:17:17.271Z,7.60
2023-01-12T00:19:47.174Z,7.60
2023-01-12T00:22:18.373Z,7.60
2023-01-12T00:24:49.648Z,7.60
2023-01-12T00:27:20.578Z,7.60
2023-01-12T00:29:49.801Z,7.60
2023-01-12T00:32:20.008Z,7.60
2023-01-12T00:34:50.085Z,7.60
2023-01-12T00:37:20.578Z,7.60
2023-01-12T00:40:01.271Z,7.60
2023-01-12T00:42:48.106Z,7.60
2023-01-12T00:45:25.485Z,7.60
2023-01-12T00:47:54.628Z,7.60
2023-01-12T00:50:24.654Z,7.60
2023-01-12T00:52:53.140Z,7.70
2023-01-12T00:55:21.625Z,7.70
2023-01-12T00:57:50.096Z,7.70
2023-01-12T01:00:19.909Z,7.60
2023-01-12T01:02:48.433Z,7.70
2023-01-12T01:05:17.847Z,7.70
2023-01-12T01:07:48.118Z,7.60
2023-01-12T01:10:17.279Z,7.60
2023-01-12T01:12:48.858Z,7.50
2023-01-12T01:15:17.306Z,7.50
2023-01-12T01:17:48.455Z,7.50
2023-01-12T01:20:17.120Z,7.50
2023-01-12T01:22:46.988Z,7.50
2023-01-12T01:25:15.535Z,7.50
2023-01-12T01:27:43.998Z,7.40
2023-01-12T01:30:13.067Z,7.40
2023-01-12T01:32:44.571Z,7.40
2023-01-12T01:35:13.013Z,7.40
2023-01-12T01:37:41.479Z,7.40
2023-01-12T01:40:13.843Z,7.40
2023-01-12T01:42:42.472Z,7.30
2023-01-12T01:45:13.427Z,7.30
2023-01-12T01:47:44.747Z,7.30
2023-01-12T01:50:18.980Z,7.30
2023-01-12T01:52:51.137Z,7.30
2023-01-12T01:55:24.836Z,7.30
2023-01-12T01:58:00.445Z,7.30
2023-01-12T02:00:29.537Z,7.30
2023-01-12T02:03:00.274Z,7.30
2023-01-12T02:05:29.643Z,7.30
2023-01-12T02:08:04.118Z,7.30
2023-01-12T02:10:34.221Z,7.40
2023-01-12T02:13:20.013Z,7.40
2023-01-12T02:16:16.728Z,7.40
2023-01-12T02:18:54.355Z,7.40
2023-01-12T02:21:57.038Z,7.30
2023-01-12T02:24:56.810Z,7.40
2023-01-12T02:27:43.575Z,7.40
2023-01-12T02:30:48.253Z,7.40
2023-01-12T02:33:39.236Z,7.40
2023-01-12T02:36:14.911Z,7.40
2023-01-12T02:38:49.112Z,7.50
2023-01-12T02:41:45.095Z,7.50
2023-01-12T02:44:30.006Z,7.50
2023-01-12T02:47:00.314Z,7.50
2023-01-12T02:49:33.061Z,7.50
2023-01-12T02:52:05.576Z,7.50
2023-01-12T02:54:35.626Z,7.50
2023-01-12T02:57:07.311Z,7.50
2023-01-12T02:59:38.281Z,7.40
2023-01-12T03:02:11.074Z,7.40
2023-01-12T03:04:42.045Z,7.50
2023-01-12T03:07:25.148Z,7.40
2023-01-12T03:09:57.354Z,7.40
2023-01-12T03:12:30.625Z,7.40
2023-01-12T03:15:00.984Z,7.40
2023-01-12T03:17:34.210Z,7.40
2023-01-12T03:20:08.295Z,7.30
2023-01-12T03:22:38.723Z,7.30
2023-01-12T03:25:11.346Z,7.30
2023-01-12T03:27:42.124Z,7.30
2023-01-12T03:30:16.213Z,7.30
2023-01-12T03:32:44.979Z,7.20
2023-01-12T03:35:15.097Z,7.20
2023-01-12T03:37:48.169Z,7.10
2023-01-12T03:40:22.642Z,7.10
2023-01-12T03:42:57.966Z,7.00
2023-01-12T03:45:32.145Z,7.00
2023-01-12T03:48:05.027Z,7.00
2023-01-12T03:50:40.543Z,6.90
2023-01-12T03:53:13.525Z,6.90
2023-01-12T03:55:44.025Z,6.90
2023-01-12T03:58:12.645Z,6.80
2023-01-12T04:00:41.163Z,6.80
2023-01-12T04:03:11.621Z,6.70
2023-01-12T04:05:44.113Z,6.60
2023-01-12T04:08:14.954Z,6.60
2023-01-12T04:10:46.566Z,6.50
2023-01-12T04:13:15.362Z,6.50
2023-01-12T04:15:43.799Z,6.50
2023-01-12T04:18:13.556Z,6.40
2023-01-12T04:20:43.437Z,6.30
2023-01-12T04:23:10.909Z,6.40
2023-01-12T04:25:39.415Z,6.40
2023-01-12T04:28:07.824Z,6.40
2023-01-12T04:30:36.302Z,6.40
2023-01-12T04:33:09.401Z,6.40
2023-01-12T04:35:38.034Z,6.40
2023-01-12T04:38:10.848Z,6.40
2023-01-12T04:40:40.424Z,6.30
2023-01-12T04:43:12.064Z,6.30
2023-01-12T04:45:43.852Z,6.30
2023-01-12T04:48:13.932Z,6.30
2023-01-12T04:50:44.449Z,6.20
2023-01-12T04:53:14.811Z,6.20
2023-01-12T04:55:44.772Z,6.10
2023-01-12T04:58:13.246Z,6.00
2023-01-12T05:00:42.485Z,6.00
2023-01-12T05:03:13.120Z,6.00
2023-01-12T05:05:42.009Z,5.90
2023-01-12T05:08:28.903Z,5.90
2023-01-12T05:11:00.533Z,5.90
2023-01-12T05:13:30.529Z,5.90
2023-01-12T05:16:08.051Z,5.80
2023-01-12T05:18:36.568Z,5.80
2023-01-12T05:21:05.754Z,5.70
2023-01-12T05:23:36.131Z,5.70
2023-01-12T05:26:07.457Z,5.70
2023-01-12T05:28:36.253Z,5.70
2023-01-12T05:31:07.213Z,5.70
2023-01-12T05:33:36.137Z,5.80
2023-01-12T05:36:08.949Z,5.80
2023-01-12T05:38:37.521Z,5.80
2023-01-12T05:41:10.260Z,5.90
2023-01-12T05:43:53.083Z,5.80
2023-01-12T05:46:23.664Z,5.90
2023-01-12T05:48:53.355Z,5.90
2023-01-12T05:51:22.191Z,5.90
2023-01-12T05:53:50.579Z,5.90
2023-01-12T05:56:23.376Z,5.80
2023-01-12T05:58:52.678Z,5.80
2023-01-12T06:01:22.019Z,5.80
2023-01-12T06:03:51.141Z,5.80
2023-01-12T06:06:20.658Z,5.80
2023-01-12T06:08:52.176Z,5.70
2023-01-12T06:11:39.836Z,5.70
2023-01-12T06:14:12.557Z,5.60
2023-01-12T06:16:44.147Z,5.60
2023-01-12T06:19:13.367Z,5.60
2023-01-12T06:21:42.208Z,5.50
2023-01-12T06:24:11.074Z,5.40
2023-01-12T06:26:45.396Z,5.40
2023-01-12T06:29:14.186Z,5.40
2023-01-12T06:31:43.892Z,5.40
2023-01-12T06:34:13.237Z,5.40
2023-01-12T06:36:41.758Z,5.40
2023-01-12T06:39:11.141Z,5.40
2023-01-12T06:41:58.582Z,5.50
2023-01-12T06:44:27.174Z,5.60
2023-01-12T06:46:55.700Z,5.70
2023-01-12T06:49:24.248Z,5.80
2023-01-12T06:51:52.737Z,5.80
2023-01-12T06:54:23.327Z,5.90
2023-01-12T06:56:54.729Z,6.00
2023-01-12T06:59:23.196Z,6.00
2023-01-12T07:01:51.840Z,6.10
2023-01-12T07:04:20.522Z,6.20
2023-01-12T07:06:49.434Z,6.20
2023-01-12T07:09:17.960Z,6.20
2023-01-12T07:11:46.492Z,6.30
2023-01-12T07:14:16.358Z,6.20
2023-01-12T07:16:44.842Z,6.20
2023-01-12T07:19:13.346Z,6.30
2023-01-12T07:21:41.800Z,6.30
2023-01-12T07:24:12.182Z,6.40
2023-01-12T07:26:40.876Z,6.70
2023-01-12T07:29:11.243Z,7.10
2023-01-12T07:31:41.108Z,7.60
2023-01-12T07:34:09.629Z,8.10
2023-01-12T07:36:41.717Z,8.60
2023-01-12T07:39:13.228Z,8.90
2023-01-12T07:41:59.640Z,9.40
2023-01-12T07:44:28.183Z,9.70
2023-01-12T07:46:59.644Z,10.10
2023-01-12T07:49:28.149Z,10.60
2023-01-12T07:51:57.000Z,10.90
2023-01-12T07:54:25.464Z,10.70
2023-01-12T07:56:53.909Z,10.70
2023-01-12T07:59:23.811Z,10.70
2023-01-12T08:01:53.904Z,11.20
2023-01-12T08:04:24.383Z,11.30
2023-01-12T08:06:52.920Z,10.90
2023-01-12T08:09:21.400Z,10.40
2023-01-12T08:11:49.888Z,10.00
2023-01-12T08:14:27.527Z,9.80
2023-01-12T08:16:56.910Z,9.70
2023-01-12T08:19:31.168Z,9.70
2023-01-12T08:22:03.174Z,9.70
2023-01-12T08:24:36.906Z,9.60
2023-01-12T08:27:07.993Z,9.60
2023-01-12T08:29:42.018Z,9.50
2023-01-12T08:32:13.263Z,9.70
2023-01-12T08:34:46.612Z,9.80
2023-01-12T08:37:20.531Z,9.80
2023-01-12T08:39:50.174Z,9.80
2023-01-12T08:42:19.140Z,9.70
2023-01-12T08:44:47.839Z,9.40
2023-01-12T08:47:18.239Z,9.20
2023-01-12T08:49:48.513Z,8.90
2023-01-12T08:52:36.730Z,9.20
2023-01-12T08:55:05.760Z,9.50
2023-01-12T08:57:37.002Z,9.80
2023-01-12T09:00:06.770Z,10.00
2023-01-12T09:02:35.407Z,10.20
2023-01-12T09:05:08.951Z,10.50
2023-01-12T09:07:38.149Z,10.70
2023-01-12T09:10:07.901Z,10.90
2023-01-12T09:12:36.417Z,11.00
2023-01-12T09:15:05.192Z,11.10
2023-01-12T09:17:33.687Z,11.10
2023-01-12T09:20:02.202Z,11.00
2023-01-12T09:22:34.278Z,11.00
2023-01-12T09:25:02.767Z,10.90
2023-01-12T09:27:31.544Z,10.80
2023-01-12T09:29:59.985Z,10.80
2023-01-12T09:32:36.211Z,10.80
2023-01-12T09:35:05.517Z,10.90
2023-01-12T09:37:35.374Z,10.90
2023-01-12T09:40:04.424Z,10.90
2023-01-12T09:42:50.327Z,10.90
2023-01-12T09:45:39.861Z,10.90
2023-01-12T09:48:11.069Z,10.90
2023-01-12T09:50:43.227Z,10.90
2023-01-12T09:53:19.869Z,10.80
2023-01-12T09:55:59.233Z,10.50
2023-01-12T09:58:42.416Z,10.70
2023-01-12T10:01:20.612Z,11.00
2023-01-12T10:03:58.699Z,11.20
2023-01-12T10:06:27.311Z,11.30
2023-01-12T10:08:59.303Z,11.30
2023-01-12T10:11:33.672Z,11.30
2023-01-12T10:14:34.475Z,11.30
2023-01-12T10:17:16.186Z,11.30
2023-01-12T10:19:54.941Z,11.30
2023-01-12T10:22:38.206Z,11.30
2023-01-12T10:25:18.558Z,11.40
2023-01-12T10:27:49.028Z,11.40
2023-01-12T10:30:21.003Z,11.40
2023-01-12T10:32:49.524Z,11.40
2023-01-12T10:35:22.456Z,11.40
2023-01-12T10:37:53.723Z,11.40
2023-01-12T10:40:31.258Z,11.40
2023-01-12T10:43:24.116Z,11.40
2023-01-12T10:46:10.736Z,11.40
2023-01-12T10:48:41.033Z,11.40
2023-01-12T10:51:21.781Z,11.30
2023-01-12T10:53:53.349Z,11.30
2023-01-12T10:56:35.335Z,11.30
2023-01-12T10:59:06.752Z,11.20
2023-01-12T11:01:51.080Z,11.30
2023-01-12T11:04:23.041Z,11.30
2023-01-12T11:07:04.946Z,11.30
2023-01-12T11:09:33.848Z,11.30
2023-01-12T11:12:06.178Z,11.30
2023-01-12T11:14:38.229Z,11.30
2023-01-12T11:17:21.077Z,11.30
2023-01-12T11:19:52.954Z,11.30
2023-01-12T11:22:27.513Z,11.40
2023-01-12T11:25:02.907Z,11.50
2023-01-12T11:27:38.707Z,11.60
2023-01-12T11:30:17.515Z,11.30
2023-01-12T11:32:50.830Z,11.30
2023-01-12T11:35:30.913Z,10.90
2023-01-12T11:38:02.617Z,10.90
2023-01-12T11:40:33.937Z,11.10
2023-01-12T11:43:29.569Z,11.30
2023-01-12T11:46:04.847Z,11.50
2023-01-12T11:48:40.720Z,11.50
2023-01-12T11:51:12.684Z,11.30
2023-01-12T11:53:41.740Z,11.30
2023-01-12T11:56:25.044Z,11.50
2023-01-12T11:59:07.739Z,11.70
2023-01-12T12:01:44.617Z,11.80
2023-01-12T12:04:28.270Z,11.50
2023-01-12T12:07:18.488Z,11.00
2023-01-12T12:10:16.258Z,11.00
2023-01-12T12:13:01.010Z,11.30
2023-01-12T12:15:41.005Z,11.60
2023-01-12T12:18:23.195Z,11.70
2023-01-12T12:21:03.049Z,11.70
2023-01-12T12:23:43.402Z,11.80
2023-01-12T12:26:18.841Z,11.80
2023-01-12T12:29:03.521Z,11.90
2023-01-12T12:31:52.204Z,12.10
2023-01-12T12:34:38.536Z,12.20
2023-01-12T12:37:13.669Z,12.30
2023-01-12T12:39:54.823Z,12.30
2023-01-12T12:42:52.831Z,12.30
2023-01-12T12:45:32.475Z,12.30
2023-01-12T12:48:09.607Z,12.30
2023-01-12T12:50:44.140Z,12.30
2023-01-12T12:53:26.101Z,12.10
2023-01-12T12:55:57.553Z,12.10
2023-01-12T12:58:41.478Z,12.20
2023-01-12T13:02:06.650Z,12.20
2023-01-12T13:05:04.507Z,12.30
2023-01-12T13:07:37.820Z,12.00
2023-01-12T13:10:31.990Z,12.00
2023-01-12T13:13:23.627Z,12.10
2023-01-12T13:15:52.203Z,12.20
2023-01-12T13:18:43.424Z,12.20
2023-01-12T13:21:33.260Z,12.00
2023-01-12T13:24:27.435Z,11.60
2023-01-12T13:26:58.857Z,11.60
2023-01-12T13:29:40.049Z,11.80
2023-01-12T13:32:41.413Z,11.90
2023-01-12T13:35:58.257Z,12.10
2023-01-12T13:38:51.653Z,12.00
2023-01-12T13:41:45.617Z,11.70
2023-01-12T13:44:21.538Z,11.80
2023-01-12T13:46:52.382Z,11.80
2023-01-12T13:49:27.367Z,11.90
2023-01-12T13:52:01.223Z,12.00
2023-01-12T13:54:33.638Z,11.90
2023-01-12T13:57:05.764Z,11.80
2023-01-12T13:59:35.332Z,11.90
2023-01-12T14:02:05.125Z,12.00
2023-01-12T14:05:01.287Z,12.10
2023-01-12T14:07:47.064Z,11.70
2023-01-12T14:10:26.418Z,11.90
2023-01-12T14:13:11.525Z,12.10
2023-01-12T14:15:59.357Z,12.20
2023-01-12T14:18:30.438Z,12.10
2023-01-12T14:21:00.866Z,12.00
2023-01-12T14:23:33.745Z,12.10
2023-01-12T14:26:16.737Z,12.10
2023-01-12T14:28:47.065Z,12.20
2023-01-12T14:31:20.571Z,12.20
2023-01-12T14:33:52.424Z,12.20
2023-01-12T14:36:25.615Z,12.20
2023-01-12T14:38:55.113Z,12.10
2023-01-12T14:41:45.109Z,12.10
2023-01-12T14:44:36.836Z,12.10
2023-01-12T14:47:05.721Z,12.10
2023-01-12T14:49:35.727Z,12.00
2023-01-12T14:52:22.212Z,11.90
2023-01-12T14:54:52.252Z,11.70
2023-01-12T14:57:26.110Z,11.70
2023-01-12T14:59:55.010Z,11.60
2023-01-12T15:02:35.187Z,11.60
2023-01-12T15:05:06.858Z,11.60
2023-01-12T15:07:38.531Z,11.50
2023-01-12T15:10:29.673Z,11.50
2023-01-12T15:13:12.701Z,11.40
2023-01-12T15:15:55.456Z,11.40
2023-01-12T15:18:41.643Z,11.30
2023-01-12T15:21:28.426Z,11.20
2023-01-12T15:24:11.431Z,11.10
2023-01-12T15:26:40.060Z,11.00
2023-01-12T15:29:10.846Z,11.00
2023-01-12T15:31:40.131Z,10.90
2023-01-12T15:34:10.923Z,10.90
2023-01-12T15:36:39.543Z,10.80
2023-01-12T15:39:08.130Z,10.70
2023-01-12T15:41:51.575Z,10.60
2023-01-12T15:44:22.812Z,10.50
2023-01-12T15:46:51.355Z,10.40
2023-01-12T15:49:20.020Z,10.30
2023-01-12T15:51:50.624Z,10.30
2023-01-12T15:54:20.436Z,10.30
2023-01-12T15:56:49.619Z,10.20
2023-01-12T15:59:18.110Z,10.20
2023-01-12T16:01:51.984Z,10.10
2023-01-12T16:04:42.229Z,10.10
2023-01-12T16:07:11.104Z,10.00
2023-01-12T16:09:41.053Z,10.00
2023-01-12T16:12:10.325Z,9.90
2023-01-12T16:14:38.955Z,9.90
2023-01-12T16:17:09.051Z,9.90
2023-01-12T16:19:41.455Z,9.80
2023-01-12T16:22:17.920Z,9.70
2023-01-12T16:24:49.331Z,9.60
2023-01-12T16:27:18.358Z,9.50
2023-01-12T16:29:47.119Z,9.50
2023-01-12T16:32:18.210Z,9.40
2023-01-12T16:34:47.004Z,9.30
2023-01-12T16:37:16.524Z,9.20
2023-01-12T16:39:46.681Z,9.20
2023-01-12T16:42:15.543Z,9.20
2023-01-12T16:44:44.308Z,9.10
2023-01-12T16:47:15.361Z,9.10
2023-01-12T16:49:48.626Z,9.00
2023-01-12T16:52:19.731Z,8.80
2023-01-12T16:54:48.319Z,8.80
2023-01-12T16:57:18.862Z,8.60
2023-01-12T16:59:47.397Z,8.60
2023-01-12T17:02:18.126Z,8.50
2023-01-12T17:04:52.011Z,8.40
2023-01-12T17:07:20.979Z,8.30
2023-01-12T17:09:50.081Z,8.00
2023-01-12T17:12:18.805Z,8.20
2023-01-12T17:17:35.634Z,8.30
2023-01-12T17:20:06.597Z,7.70
2023-01-12T17:22:38.651Z,7.30
2023-01-12T17:25:10.762Z,6.90
2023-01-12T17:27:39.322Z,6.90
2023-01-12T17:30:09.079Z,7.10
2023-01-12T17:32:37.721Z,7.30
2023-01-12T17:35:11.256Z,7.50
2023-01-12T17:37:39.717Z,7.50
2023-01-12T17:40:09.515Z,7.60
2023-01-12T17:42:57.733Z,7.50
2023-01-12T17:45:26.170Z,7.50
2023-01-12T17:47:54.654Z,7.50
2023-01-12T17:50:24.545Z,7.50
2023-01-12T17:52:55.054Z,7.50
2023-01-12T17:55:23.541Z,7.50
2023-01-12T17:57:52.007Z,7.50
2023-01-12T18:00:21.231Z,7.40
2023-01-12T18:02:51.137Z,7.50
2023-01-12T18:05:19.702Z,7.50
2023-01-12T18:07:49.561Z,7.40
2023-01-12T18:10:18.632Z,7.40
2023-01-12T18:12:49.326Z,7.30
2023-01-12T18:15:17.997Z,7.30
2023-01-12T18:17:49.503Z,7.20
2023-01-12T18:20:18.084Z,7.20
2023-01-12T18:22:54.673Z,7.20
2023-01-12T18:25:23.268Z,7.20
2023-01-12T18:27:51.766Z,7.10
2023-01-12T18:30:22.953Z,7.10
2023-01-12T18:32:51.446Z,7.10
2023-01-12T18:35:20.178Z,7.10
2023-01-12T18:37:50.055Z,7.10
2023-01-12T18:40:19.965Z,7.20
2023-01-12T18:42:54.463Z,7.20
2023-01-12T18:45:24.162Z,7.10
2023-01-12T18:48:06.891Z,7.00
2023-01-12T18:50:53.124Z,6.90
2023-01-12T18:53:25.043Z,6.90
2023-01-12T18:55:57.112Z,6.90
2023-01-12T18:58:27.577Z,6.80
2023-01-12T19:00:56.429Z,6.80
2023-01-12T19:03:25.052Z,6.80
2023-01-12T19:06:00.738Z,6.80
2023-01-12T19:08:49.248Z,6.80
2023-01-12T19:11:17.905Z,6.90
2023-01-12T19:14:03.655Z,6.90
2023-01-12T19:16:49.499Z,6.80
2023-01-12T19:19:22.672Z,6.70
2023-01-12T19:22:08.748Z,6.60
2023-01-12T19:24:55.804Z,6.60
2023-01-12T19:27:42.079Z,6.50
2023-01-12T19:30:11.974Z,6.50
2023-01-12T19:32:40.655Z,6.50
2023-01-12T19:35:11.740Z,6.50
2023-01-12T19:37:40.692Z,6.50
2023-01-12T19:40:18.330Z,6.50
2023-01-12T19:43:03.959Z,6.50
2023-01-12T19:45:32.522Z,6.40
2023-01-12T19:48:01.478Z,6.30
2023-01-12T19:50:29.952Z,6.30
2023-01-12T19:52:58.381Z,6.30
2023-01-12T19:55:32.094Z,6.30
2023-01-12T19:58:01.542Z,6.30
2023-01-12T20:00:30.448Z,6.30
2023-01-12T20:02:59.457Z,6.30
2023-01-12T20:05:28.370Z,6.30
2023-01-12T20:07:57.126Z,6.20
2023-01-12T20:10:25.866Z,6.20
2023-01-12T20:12:55.724Z,6.10
2023-01-12T20:15:24.289Z,6.20
2023-01-12T20:17:52.735Z,6.20
2023-01-12T20:20:21.404Z,6.20
2023-01-12T20:22:51.268Z,6.20
2023-01-12T20:25:20.146Z,6.20
2023-01-12T20:27:49.342Z,6.30
2023-01-12T20:30:36.533Z,6.30
2023-01-12T20:33:06.770Z,6.30
2023-01-12T20:35:38.322Z,6.40
2023-01-12T20:38:14.565Z,6.30
2023-01-12T20:40:43.325Z,6.30
2023-01-12T20:43:12.001Z,6.30
2023-01-12T20:45:45.647Z,6.20
2023-01-12T20:48:18.252Z,6.20
2023-01-12T20:50:47.577Z,6.10
2023-01-12T20:53:18.219Z,6.10
2023-01-12T20:55:49.350Z,6.10
2023-01-12T20:58:18.097Z,6.10
2023-01-12T21:00:52.160Z,6.10
2023-01-12T21:03:21.055Z,6.10
2023-01-12T21:05:50.150Z,6.00
2023-01-12T21:08:19.214Z,6.00
2023-01-12T21:10:52.914Z,5.90
2023-01-12T21:13:24.934Z,6.00
2023-01-12T21:16:02.714Z,6.00
2023-01-12T21:18:33.847Z,6.10
2023-01-12T21:21:02.800Z,6.10
2023-01-12T21:23:31.484Z,6.20
2023-01-12T21:25:59.935Z,6.20
2023-01-12T21:28:30.276Z,6.20
2023-01-12T21:31:03.307Z,6.20
2023-01-12T21:33:32.023Z,6.10
2023-01-12T21:36:00.481Z,6.10
2023-01-12T21:38:29.759Z,6.00
2023-01-12T21:41:02.840Z,6.00
2023-01-12T21:43:31.779Z,6.00
2023-01-12T21:46:07.352Z,6.00
2023-01-12T21:48:36.781Z,6.10
2023-01-12T21:51:06.188Z,6.00
2023-01-12T21:53:34.724Z,6.10
2023-01-12T21:56:05.727Z,6.10
2023-01-12T21:58:36.615Z,6.10
2023-01-12T22:01:11.040Z,6.00
2023-01-12T22:03:41.253Z,6.00
2023-01-12T22:06:12.380Z,6.00
2023-01-12T22:08:42.815Z,6.10
2023-01-12T22:11:14.717Z,6.10
2023-01-12T22:13:44.220Z,6.10
2023-01-12T22:16:16.557Z,6.10
2023-01-12T22:18:49.048Z,6.20
2023-01-12T22:21:19.404Z,6.20
2023-01-12T22:23:48.332Z,6.20
2023-01-12T22:26:17.764Z,6.20
2023-01-12T22:28:48.116Z,6.20
2023-01-12T22:31:19.912Z,6.20
2023-01-12T22:33:54.182Z,6.10
2023-01-12T22:36:22.942Z,6.10
2023-01-12T22:38:51.498Z,6.10
2023-01-12T22:41:21.924Z,6.20
2023-01-12T22:43:50.644Z,6.10
2023-01-12T22:46:22.663Z,6.20
2023-01-12T22:48:55.305Z,6.20
2023-01-12T22:51:25.552Z,6.20
2023-01-12T22:53:55.577Z,6.20
2023-01-12T22:56:24.611Z,6.20
2023-01-12T22:58:55.704Z,6.30
2023-01-12T23:01:26.601Z,6.30
2023-01-12T23:03:58.270Z,6.30
2023-01-12T23:06:27.785Z,6.30
2023-01-12T23:08:56.345Z,6.30
2023-01-12T23:11:27.383Z,6.30
2023-01-12T23:13:56.688Z,6.30
2023-01-12T23:16:28.319Z,6.30
2023-01-12T23:18:57.613Z,6.30
2023-01-12T23:21:27.843Z,6.30
2023-01-12T23:23:58.095Z,6.30
2023-01-12T23:26:28.510Z,6.30
2023-01-12T23:29:00.258Z,6.30
2023-01-12T23:31:33.830Z,6.30
2023-01-12T23:34:02.661Z,6.30
2023-01-12T23:36:31.965Z,6.30
2023-01-12T23:39:02.603Z,6.40
2023-01-12T23:41:33.540Z,6.40
2023-01-12T23:44:03.619Z,6.40
2023-01-12T23:46:35.939Z,6.40
2023-01-12T23:49:05.580Z,6.40
2023-01-12T23:51:36.280Z,6.40
2023-01-12T23:54:05.263Z,6.40
2023-01-12T23:56:37.641Z,6.30
2023-01-12T23:59:07.964Z,6.30
